Time;durP1;ratioP1;P1;durP2;ratioP2;P2;SDS_P1;SDS_P2;PMS_P1;PMS_P2;Temp;Humidity;BMP_temperature;BMP_pressure;BME280_temperature;BME280_humidity;BME280_pressure;Samples;Min_cycle;Max_cycle;Signal;HPM_P1;HPM_P2
2021/08/06 00:01:15;;;;;;;13.50;10.10;;;23.90;67.00;;;;;;5053672;28;20465;-62
2021/08/06 00:03:41;;;;;;;14.98;11.68;;;23.80;67.00;;;;;;5053414;28;20017;-62
2021/08/06 00:06:07;;;;;;;12.45;10.60;;;23.70;67.50;;;;;;5053192;28;20397;-62
2021/08/06 00:08:34;;;;;;;13.23;11.35;;;23.60;67.50;;;;;;5053483;28;20029;-62
2021/08/06 00:11:03;;;;;;;14.05;10.93;;;23.60;67.90;;;;;;5053317;28;20021;-62
2021/08/06 00:13:29;;;;;;;13.98;11.18;;;23.50;68.30;;;;;;5053335;28;20503;-62
2021/08/06 00:15:57;;;;;;;12.10;10.40;;;23.50;68.50;;;;;;5053534;28;20465;-62
2021/08/06 00:18:23;;;;;;;14.32;11.05;;;23.40;68.60;;;;;;5053740;28;20028;-62
2021/08/06 00:20:49;;;;;;;13.63;10.73;;;23.40;69.10;;;;;;5053339;28;20032;-62
2021/08/06 00:23:15;;;;;;;14.15;10.55;;;23.40;69.20;;;;;;5053206;28;20029;-62
2021/08/06 00:25:41;;;;;;;12.23;10.93;;;23.40;69.20;;;;;;5053130;28;20027;-62
2021/08/06 00:28:07;;;;;;;14.32;11.57;;;23.30;69.40;;;;;;5053157;28;20159;-62
2021/08/06 00:30:32;;;;;;;13.18;11.02;;;23.40;69.70;;;;;;5053083;28;20476;-62
2021/08/06 00:32:58;;;;;;;17.00;11.85;;;23.30;69.60;;;;;;5052319;28;20417;-62
2021/08/06 00:35:24;;;;;;;15.30;12.38;;;23.40;70.00;;;;;;5051595;28;20048;-62
2021/08/06 00:37:49;;;;;;;15.93;12.95;;;23.30;70.00;;;;;;5052896;28;20381;-62
2021/08/06 00:40:15;;;;;;;15.98;13.20;;;23.30;70.10;;;;;;5052824;28;20096;-62
2021/08/06 00:42:41;;;;;;;17.13;13.88;;;23.30;70.30;;;;;;5052893;28;20574;-63
2021/08/06 00:45:08;;;;;;;16.75;13.20;;;23.30;70.40;;;;;;5052786;28;20024;-62
2021/08/06 00:47:34;;;;;;;18.63;13.63;;;23.20;70.60;;;;;;5052607;28;20403;-62
2021/08/06 00:50:01;;;;;;;14.57;12.25;;;23.10;70.80;;;;;;5052705;28;20017;-63
2021/08/06 00:52:27;;;;;;;13.88;12.27;;;23.10;71.00;;;;;;5052607;28;20036;-62
2021/08/06 00:54:53;;;;;;;17.10;13.32;;;23.10;71.00;;;;;;5052473;28;20021;-62
2021/08/06 00:57:19;;;;;;;17.33;14.32;;;23.00;71.00;;;;;;5051410;28;20420;-60
2021/08/06 00:59:45;;;;;;;15.45;13.35;;;23.00;71.40;;;;;;5052775;28;20032;-62
2021/08/06 01:02:35;;;;;;;16.17;14.07;;;22.90;71.60;;;;;;5052289;28;20431;-62
2021/08/06 01:05:12;;;;;;;20.48;15.93;;;22.90;72.10;;;;;;5052418;28;20048;-62
2021/08/06 01:08:16;;;;;;;17.75;15.20;;;22.90;72.70;;;;;;5052333;28;20098;-62
2021/08/06 01:10:46;;;;;;;17.10;14.80;;;22.80;72.80;;;;;;5050910;28;20354;-62
2021/08/06 01:13:16;;;;;;;20.67;16.83;;;22.70;72.70;;;;;;5052197;28;20102;-62
2021/08/06 01:15:47;;;;;;;19.77;15.70;;;22.70;73.10;;;;;;5051052;28;20122;-62
2021/08/06 01:18:14;;;;;;;15.18;13.57;;;22.60;73.30;;;;;;5052262;28;20111;-62
2021/08/06 01:20:45;;;;;;;17.52;13.88;;;22.50;73.10;;;;;;5051978;28;20074;-62
2021/08/06 01:23:19;;;;;;;15.57;13.25;;;22.50;73.40;;;;;;5052271;28;20028;-62
2021/08/06 01:25:52;;;;;;;18.20;15.73;;;22.40;73.50;;;;;;5052102;28;20095;-63
2021/08/06 01:28:22;;;;;;;20.17;16.00;;;22.50;74.00;;;;;;5051905;28;20021;-62
2021/08/06 01:30:47;;;;;;;19.42;16.35;;;22.40;74.60;;;;;;5052020;28;20025;-62
2021/08/06 01:33:14;;;;;;;20.33;16.45;;;22.40;74.90;;;;;;5051612;28;20029;-62
2021/08/06 01:35:40;;;;;;;19.20;14.75;;;22.40;74.80;;;;;;5050572;28;20074;-62
2021/08/06 01:38:06;;;;;;;21.17;17.95;;;22.40;74.70;;;;;;5052074;28;20379;-63
2021/08/06 01:40:41;;;;;;;19.83;16.25;;;22.40;75.30;;;;;;5051860;28;20032;-62
2021/08/06 01:43:16;;;;;;;19.05;15.15;;;22.30;75.30;;;;;;5051337;28;20021;-62
2021/08/06 01:45:48;;;;;;;17.95;15.38;;;22.30;75.70;;;;;;5051174;28;20025;-62
2021/08/06 01:48:18;;;;;;;17.63;15.40;;;22.30;75.40;;;;;;5051530;28;20040;-61
2021/08/06 01:50:47;;;;;;;17.10;14.93;;;22.30;75.70;;;;;;5050413;28;20031;-62
2021/08/06 01:53:17;;;;;;;20.90;16.83;;;22.30;75.60;;;;;;5051621;28;20028;-62
2021/08/06 01:56:06;;;;;;;19.85;16.90;;;22.40;76.00;;;;;;5051489;28;20535;-62
2021/08/06 01:58:34;;;;;;;20.02;15.07;;;22.40;76.00;;;;;;5051762;28;20064;-62
2021/08/06 02:01:00;;;;;;;20.23;17.05;;;22.40;75.80;;;;;;5051454;28;20035;-62
2021/08/06 02:03:25;;;;;;;19.13;16.05;;;22.40;76.10;;;;;;5051212;28;20384;-62
2021/08/06 02:05:52;;;;;;;18.63;15.23;;;22.30;76.30;;;;;;5051053;28;20049;-62
2021/08/06 02:08:19;;;;;;;18.55;15.73;;;22.30;76.20;;;;;;5051300;28;20110;-62
2021/08/06 02:10:45;;;;;;;18.45;15.77;;;22.30;76.90;;;;;;5051142;28;20043;-62
2021/08/06 02:13:11;;;;;;;15.68;13.07;;;22.30;76.90;;;;;;5050921;28;20519;-62
2021/08/06 02:15:41;;;;;;;14.07;11.77;;;22.20;76.60;;;;;;5051186;28;20031;-62
2021/08/06 02:18:07;;;;;;;16.63;13.90;;;22.30;76.40;;;;;;5049879;28;20021;-61
2021/08/06 02:20:34;;;;;;;17.45;14.75;;;22.30;77.20;;;;;;5051142;28;20017;-61
2021/08/06 02:23:01;;;;;;;13.27;11.43;;;22.30;77.50;;;;;;5050778;28;20108;-62
2021/08/06 02:25:27;;;;;;;15.00;12.85;;;22.30;77.10;;;;;;5051018;28;20021;-61
2021/08/06 02:27:54;;;;;;;15.60;13.43;;;22.30;77.20;;;;;;5051065;28;20025;-61
2021/08/06 02:30:21;;;;;;;13.57;11.57;;;22.20;77.30;;;;;;5050932;28;20522;-61
2021/08/06 02:32:48;;;;;;;12.23;10.50;;;22.30;77.00;;;;;;5050895;28;20082;-62
2021/08/06 02:35:14;;;;;;;14.65;11.77;;;22.20;76.70;;;;;;5050869;28;20029;-62
2021/08/06 02:37:44;;;;;;;13.80;12.30;;;22.30;77.00;;;;;;5051014;28;20040;-62
2021/08/06 02:40:10;;;;;;;17.88;15.98;;;22.30;77.20;;;;;;5051095;28;20040;-62
2021/08/06 02:42:36;;;;;;;16.88;15.05;;;22.30;77.90;;;;;;5050797;28;20473;-62
2021/08/06 02:45:03;;;;;;;18.55;16.10;;;22.30;78.10;;;;;;5050672;28;20075;-62
2021/08/06 02:47:29;;;;;;;18.33;16.42;;;22.20;78.50;;;;;;5050752;28;20040;-61
2021/08/06 02:49:55;;;;;;;19.30;17.20;;;22.20;79.00;;;;;;5050818;28;20025;-62
2021/08/06 02:52:21;;;;;;;20.83;17.83;;;22.20;79.50;;;;;;5050699;28;20033;-62
2021/08/06 02:54:46;;;;;;;19.92;17.80;;;22.20;79.70;;;;;;5050656;28;20025;-61
2021/08/06 02:57:12;;;;;;;18.38;16.35;;;22.20;79.90;;;;;;5054619;28;20393;-61
2021/08/06 02:59:38;;;;;;;20.00;17.90;;;22.10;80.20;;;;;;5054714;28;20384;-61
2021/08/06 03:02:03;;;;;;;22.88;16.98;;;22.10;80.60;;;;;;5054612;28;20021;-61
2021/08/06 03:04:29;;;;;;;20.50;18.23;;;22.10;80.60;;;;;;5054459;28;20029;-62
2021/08/06 03:06:55;;;;;;;22.25;18.33;;;22.10;80.70;;;;;;5054518;28;20037;-62
2021/08/06 03:09:21;;;;;;;20.75;18.52;;;22.10;80.80;;;;;;5054558;28;20219;-62
2021/08/06 03:11:47;;;;;;;18.83;16.48;;;22.10;80.70;;;;;;5054337;28;20017;-61
2021/08/06 03:14:13;;;;;;;20.73;17.20;;;22.10;80.80;;;;;;5054455;28;20108;-63
2021/08/06 03:16:39;;;;;;;21.20;18.38;;;22.10;81.10;;;;;;5054297;28;20115;-61
2021/08/06 03:19:04;;;;;;;22.13;17.95;;;22.20;81.20;;;;;;5054293;28;20052;-62
2021/08/06 03:21:30;;;;;;;21.85;18.42;;;22.20;81.00;;;;;;5054599;28;20330;-62
2021/08/06 03:23:56;;;;;;;21.35;17.10;;;22.20;81.20;;;;;;5054402;28;20029;-62
2021/08/06 03:26:21;;;;;;;19.33;17.23;;;22.30;81.00;;;;;;5054171;28;20079;-62
2021/08/06 03:28:47;;;;;;;19.48;16.77;;;22.40;81.10;;;;;;5054202;28;20029;-61
2021/08/06 03:31:13;;;;;;;19.27;16.10;;;22.40;81.00;;;;;;5054138;28;20449;-62
2021/08/06 03:33:38;;;;;;;19.00;17.02;;;22.40;81.00;;;;;;5054109;28;20021;-62
2021/08/06 03:36:05;;;;;;;19.75;16.25;;;22.40;81.00;;;;;;5052697;28;20108;-62
2021/08/06 03:38:30;;;;;;;16.90;14.18;;;22.50;81.00;;;;;;5052615;28;20078;-62
2021/08/06 03:40:56;;;;;;;15.07;12.35;;;22.50;80.60;;;;;;5053904;28;20422;-62
2021/08/06 03:43:22;;;;;;;14.35;12.77;;;22.50;80.40;;;;;;5053954;28;20447;-62
2021/08/06 03:45:48;;;;;;;14.63;13.07;;;22.60;80.20;;;;;;5053863;28;20032;-62
2021/08/06 03:48:14;;;;;;;16.38;14.50;;;22.60;79.90;;;;;;5053871;28;20032;-62
2021/08/06 03:50:40;;;;;;;15.00;13.40;;;22.70;79.80;;;;;;5053692;28;20163;-62
2021/08/06 03:53:06;;;;;;;15.35;13.23;;;22.70;79.60;;;;;;5053556;28;20044;-62
2021/08/06 03:55:31;;;;;;;15.85;14.15;;;22.70;79.40;;;;;;5053701;28;20025;-62
2021/08/06 03:57:58;;;;;;;18.40;15.45;;;22.70;79.30;;;;;;5053741;28;20021;-63
2021/08/06 04:00:27;;;;;;;15.50;13.00;;;22.70;79.70;;;;;;5053703;28;20025;-62
2021/08/06 04:02:53;;;;;;;17.58;13.38;;;22.70;79.40;;;;;;5053396;28;20021;-62
2021/08/06 04:05:18;;;;;;;15.18;13.43;;;22.70;79.40;;;;;;5053474;28;20561;-63
2021/08/06 04:07:46;;;;;;;16.52;14.27;;;22.70;79.20;;;;;;5052533;28;20036;-62
2021/08/06 04:10:14;;;;;;;16.73;14.68;;;22.70;79.20;;;;;;5053529;28;20035;-62
2021/08/06 04:12:39;;;;;;;18.50;13.93;;;22.70;78.90;;;;;;5053419;28;20048;-62
2021/08/06 04:15:06;;;;;;;13.63;11.73;;;22.80;78.60;;;;;;5053276;28;20428;-63
2021/08/06 04:17:32;;;;;;;13.45;10.73;;;22.80;78.50;;;;;;5053273;28;20037;-62
2021/08/06 04:19:58;;;;;;;14.20;10.95;;;22.80;78.20;;;;;;5053282;28;20087;-62
2021/08/06 04:22:24;;;;;;;13.50;10.48;;;22.90;78.10;;;;;;5053473;28;20384;-62
2021/08/06 04:24:50;;;;;;;18.30;11.48;;;22.90;77.80;;;;;;5053227;28;20388;-62
2021/08/06 04:27:15;;;;;;;18.27;11.93;;;23.00;77.50;;;;;;5052896;28;20053;-62
2021/08/06 04:29:41;;;;;;;20.42;12.45;;;23.00;77.30;;;;;;5053032;28;20075;-62
2021/08/06 04:32:07;;;;;;;18.50;12.07;;;23.10;77.10;;;;;;5052770;28;20025;-62
2021/08/06 04:34:33;;;;;;;19.60;13.43;;;23.20;76.90;;;;;;5052829;28;20021;-62
2021/08/06 04:37:00;;;;;;;16.30;11.57;;;23.30;76.70;;;;;;5052703;28;20118;-62
2021/08/06 04:39:25;;;;;;;16.30;11.77;;;23.40;76.50;;;;;;5052860;28;20036;-62
2021/08/06 04:41:51;;;;;;;12.68;10.38;;;23.40;76.20;;;;;;5052984;28;20051;-63
2021/08/06 04:44:19;;;;;;;13.95;10.00;;;23.50;76.10;;;;;;5052672;28;20473;-63
2021/08/06 04:46:45;;;;;;;12.00;10.13;;;23.50;75.80;;;;;;5052727;28;20025;-63
2021/08/06 04:49:11;;;;;;;13.38;10.60;;;23.60;75.70;;;;;;5052159;28;20096;-62
2021/08/06 04:51:37;;;;;;;13.15;10.48;;;23.60;75.30;;;;;;5052688;28;20028;-62
2021/08/06 04:54:03;;;;;;;11.45;9.75;;;23.70;75.20;;;;;;5052563;28;20429;-64
2021/08/06 04:56:30;;;;;;;11.88;8.85;;;23.70;75.20;;;;;;5052554;28;20036;-61
2021/08/06 04:58:55;;;;;;;11.25;8.98;;;23.70;75.20;;;;;;5052502;28;20104;-63
2021/08/06 05:01:21;;;;;;;12.23;8.73;;;23.70;75.10;;;;;;5052627;28;20424;-63
2021/08/06 05:03:46;;;;;;;11.50;9.20;;;23.80;75.20;;;;;;5052131;28;20025;-62
2021/08/06 05:06:13;;;;;;;11.02;8.73;;;23.90;75.20;;;;;;5052127;28;20175;-62
2021/08/06 05:08:42;;;;;;;10.55;8.73;;;23.90;75.20;;;;;;5052304;28;20090;-62
2021/08/06 05:11:08;;;;;;;11.60;9.27;;;24.00;75.20;;;;;;5052226;28;20025;-62
2021/08/06 05:13:34;;;;;;;11.80;9.25;;;24.10;75.20;;;;;;5051065;28;20029;-63
2021/08/06 05:16:00;;;;;;;11.75;9.55;;;24.20;75.10;;;;;;5052377;28;20337;-63
2021/08/06 05:18:25;;;;;;;12.82;10.93;;;24.30;75.10;;;;;;5051709;28;20392;-62
2021/08/06 05:20:51;;;;;;;14.80;11.68;;;24.30;75.00;;;;;;5052041;28;20401;-62
2021/08/06 05:23:17;;;;;;;11.25;9.45;;;24.40;74.90;;;;;;5052349;28;20029;-63
2021/08/06 05:25:42;;;;;;;12.30;10.40;;;24.50;74.60;;;;;;5051929;28;20025;-63
2021/08/06 05:28:08;;;;;;;11.95;10.15;;;24.60;74.40;;;;;;5051969;28;20427;-63
2021/08/06 05:30:34;;;;;;;14.30;10.70;;;24.70;74.30;;;;;;5051880;28;20092;-63
2021/08/06 05:32:59;;;;;;;11.88;10.35;;;24.80;74.10;;;;;;5051353;28;20096;-63
2021/08/06 05:35:25;;;;;;;12.95;10.82;;;24.90;73.80;;;;;;5051763;28;20440;-63
2021/08/06 05:37:51;;;;;;;11.38;9.52;;;25.00;73.60;;;;;;5051860;28;20033;-62
2021/08/06 05:40:16;;;;;;;11.85;10.35;;;25.10;73.40;;;;;;5051687;28;20024;-62
2021/08/06 05:42:42;;;;;;;10.65;9.32;;;25.30;73.00;;;;;;5051749;28;20383;-63
2021/08/06 05:45:09;;;;;;;12.70;9.65;;;25.40;72.60;;;;;;5051513;28;20072;-62
2021/08/06 05:48:05;;;;;;;12.40;10.55;;;25.50;72.10;;;;;;5051274;28;20052;-62
2021/08/06 05:50:37;;;;;;;11.40;9.90;;;25.60;71.50;;;;;;5046693;28;20033;-62
2021/08/06 05:53:03;;;;;;;12.23;10.07;;;25.80;71.30;;;;;;5051423;28;20525;-62
2021/08/06 05:55:29;;;;;;;10.13;8.77;;;25.80;70.80;;;;;;5051497;28;20119;-64
2021/08/06 05:57:54;;;;;;;12.07;9.52;;;26.00;70.80;;;;;;5051310;28;20078;-62
2021/08/06 06:00:20;;;;;;;11.85;10.60;;;26.10;70.40;;;;;;5051440;28;20472;-63
2021/08/06 06:02:46;;;;;;;13.45;11.10;;;26.20;69.40;;;;;;5051421;28;20037;-63
2021/08/06 06:05:11;;;;;;;12.65;11.27;;;26.20;69.00;;;;;;5051070;28;20600;-63
2021/08/06 06:07:48;;;;;;;15.50;10.43;;;26.30;68.80;;;;;;5051306;28;20435;-62
2021/08/06 06:10:18;;;;;;;12.90;10.45;;;26.30;68.50;;;;;;5051181;28;20028;-62
2021/08/06 06:12:43;;;;;;;11.80;9.85;;;26.40;68.40;;;;;;5051226;28;20021;-63
2021/08/06 06:15:10;;;;;;;11.30;9.65;;;26.30;68.00;;;;;;5051071;28;20094;-63
2021/08/06 06:17:36;;;;;;;12.07;10.18;;;26.30;67.70;;;;;;5051240;28;20028;-63
2021/08/06 06:20:03;;;;;;;11.00;9.82;;;26.40;67.60;;;;;;5051132;28;20329;-63
2021/08/06 06:22:29;;;;;;;11.80;8.93;;;26.30;67.50;;;;;;5051182;28;20029;-62
2021/08/06 06:24:54;;;;;;;11.85;9.75;;;26.30;68.30;;;;;;5051257;28;20127;-63
2021/08/06 06:27:20;;;;;;;12.95;11.18;;;26.40;67.50;;;;;;5051400;28;20410;-63
2021/08/06 06:29:45;;;;;;;18.35;12.98;;;26.40;67.50;;;;;;5050593;28;20043;-63
2021/08/06 06:32:11;;;;;;;24.55;16.45;;;26.40;67.30;;;;;;5050775;28;20029;-62
2021/08/06 06:34:37;;;;;;;27.90;16.38;;;26.30;67.10;;;;;;5050774;28;20032;-62
2021/08/06 06:37:03;;;;;;;22.63;15.82;;;26.30;67.40;;;;;;5049603;28;20090;-62
2021/08/06 06:39:28;;;;;;;16.92;13.18;;;26.20;67.50;;;;;;5050935;28;20036;-62
2021/08/06 06:41:54;;;;;;;16.48;13.10;;;26.10;67.60;;;;;;5050982;28;20037;-62
2021/08/06 06:44:20;;;;;;;14.70;11.40;;;26.10;67.70;;;;;;5050937;28;20181;-62
2021/08/06 06:46:45;;;;;;;12.63;11.00;;;26.00;68.00;;;;;;5050951;28;20096;-63
2021/08/06 06:49:11;;;;;;;13.10;10.43;;;26.00;68.00;;;;;;5050922;28;20028;-63
2021/08/06 06:51:37;;;;;;;11.70;10.50;;;25.90;68.20;;;;;;5051017;28;20033;-63
2021/08/06 06:54:03;;;;;;;12.90;9.88;;;26.00;67.70;;;;;;5050909;28;20025;-64
2021/08/06 06:56:28;;;;;;;13.18;10.95;;;25.90;68.00;;;;;;5050656;28;20025;-63
2021/08/06 06:58:54;;;;;;;15.85;13.60;;;26.00;68.30;;;;;;5050629;28;20032;-63
2021/08/06 07:01:19;;;;;;;21.02;13.80;;;26.00;68.70;;;;;;5050570;28;20035;-63
2021/08/06 07:03:45;;;;;;;15.15;13.25;;;25.90;68.80;;;;;;5050678;28;20035;-63
2021/08/06 07:06:11;;;;;;;14.30;12.80;;;25.80;69.20;;;;;;5050749;28;20091;-63
2021/08/06 07:08:39;;;;;;;14.18;12.35;;;25.40;69.70;;;;;;5050710;28;20029;-63
2021/08/06 07:11:05;;;;;;;13.43;11.43;;;25.20;70.20;;;;;;5050923;28;20013;-62
2021/08/06 07:13:31;;;;;;;12.70;9.95;;;25.20;69.80;;;;;;5050325;28;20043;-63
2021/08/06 07:15:57;;;;;;;11.80;9.93;;;25.00;69.50;;;;;;5050628;28;20020;-63
2021/08/06 07:18:23;;;;;;;13.27;9.73;;;24.90;70.30;;;;;;5050625;28;20025;-63
2021/08/06 07:20:48;;;;;;;12.52;10.27;;;24.90;70.70;;;;;;5050736;28;20115;-63
2021/08/06 07:23:15;;;;;;;12.27;9.27;;;24.90;69.70;;;;;;5050237;28;20037;-64
2021/08/06 07:25:40;;;;;;;10.95;9.40;;;24.80;69.80;;;;;;5050636;28;20021;-62
2021/08/06 07:28:06;;;;;;;11.20;9.15;;;24.70;70.00;;;;;;5050545;28;20464;-62
2021/08/06 07:30:32;;;;;;;10.90;9.10;;;24.70;70.10;;;;;;5050279;28;20022;-62
2021/08/06 07:32:58;;;;;;;15.73;11.75;;;24.60;70.50;;;;;;5050083;28;20036;-61
2021/08/06 07:35:25;;;;;;;12.75;9.98;;;24.30;71.30;;;;;;5050418;28;20036;-62
2021/08/06 07:37:51;;;;;;;12.48;10.20;;;24.10;71.70;;;;;;5049143;28;20074;-62
2021/08/06 07:40:17;;;;;;;13.35;10.60;;;23.90;72.50;;;;;;5050248;28;20124;-62
2021/08/06 07:42:43;;;;;;;11.73;8.90;;;23.70;73.70;;;;;;5051950;28;20063;-65
2021/08/06 07:45:10;;;;;;;12.30;8.25;;;23.50;74.20;;;;;;5053789;28;20029;-63
2021/08/06 07:47:36;;;;;;;11.00;8.13;;;23.30;74.90;;;;;;5053749;28;20029;-63
2021/08/06 07:50:02;;;;;;;9.85;7.22;;;23.20;75.10;;;;;;5053883;28;20025;-63
2021/08/06 07:52:28;;;;;;;12.20;8.32;;;23.20;75.40;;;;;;5053754;28;20207;-63
2021/08/06 07:54:53;;;;;;;22.33;10.30;;;23.20;75.50;;;;;;5053907;28;20024;-63
2021/08/06 07:57:19;;;;;;;19.85;10.55;;;23.30;75.30;;;;;;5052508;28;20072;-63
2021/08/06 07:59:45;;;;;;;22.02;11.20;;;23.50;75.00;;;;;;5054017;28;20029;-63
2021/08/06 08:02:10;;;;;;;14.48;8.38;;;23.60;74.30;;;;;;5054266;28;20361;-63
2021/08/06 08:04:36;;;;;;;14.38;8.57;;;23.80;73.90;;;;;;5053687;28;20029;-64
2021/08/06 08:07:02;;;;;;;12.68;7.38;;;24.00;73.10;;;;;;5053582;28;20107;-63
2021/08/06 08:09:28;;;;;;;10.38;6.95;;;24.00;72.60;;;;;;5053647;28;20021;-63
2021/08/06 08:11:54;;;;;;;9.77;6.47;;;24.10;71.80;;;;;;5053467;28;20022;-62
2021/08/06 08:14:19;;;;;;;9.05;6.60;;;24.20;71.40;;;;;;5053167;28;20052;-63
2021/08/06 08:16:45;;;;;;;11.02;7.38;;;24.10;71.10;;;;;;5053297;28;20044;-63
2021/08/06 08:19:11;;;;;;;11.13;6.95;;;24.10;70.60;;;;;;5053447;28;20388;-62
2021/08/06 08:21:36;;;;;;;9.13;6.63;;;24.20;70.90;;;;;;5053435;28;20067;-63
2021/08/06 08:24:03;;;;;;;10.35;6.88;;;24.20;70.80;;;;;;5053609;28;20063;-64
2021/08/06 08:26:29;;;;;;;16.55;7.57;;;24.30;70.80;;;;;;5053082;28;20029;-63
2021/08/06 08:28:54;;;;;;;15.60;10.20;;;24.40;70.40;;;;;;5053393;28;20057;-64
2021/08/06 08:31:20;;;;;;;21.15;14.80;;;24.60;70.10;;;;;;5052363;28;20059;-64
2021/08/06 08:33:46;;;;;;;30.85;19.02;;;24.90;68.90;;;;;;5051789;28;20061;-62
2021/08/06 08:36:12;;;;;;;26.83;17.15;;;25.20;67.40;;;;;;5052912;28;20025;-63
2021/08/06 08:38:37;;;;;;;24.50;15.27;;;25.50;65.30;;;;;;5053443;28;20025;-63
2021/08/06 08:41:04;;;;;;;22.20;13.88;;;25.80;64.70;;;;;;5053446;28;20033;-63
2021/08/06 08:43:30;;;;;;;23.10;12.95;;;26.20;63.40;;;;;;5053184;28;20037;-63
2021/08/06 08:45:57;;;;;;;20.88;12.23;;;26.70;61.80;;;;;;5052975;28;20078;-62
2021/08/06 08:48:23;;;;;;;26.77;13.88;;;27.10;62.40;;;;;;5053220;28;20099;-63
2021/08/06 08:50:53;;;;;;;25.50;14.27;;;27.70;61.50;;;;;;5052939;28;20021;-64
2021/08/06 08:53:19;;;;;;;19.52;11.32;;;28.40;60.70;;;;;;5052684;28;20075;-62
2021/08/06 08:55:44;;;;;;;17.88;10.90;;;29.00;59.50;;;;;;5053219;28;20029;-63
2021/08/06 08:58:11;;;;;;;18.15;11.30;;;29.50;57.10;;;;;;5052726;28;20380;-63
2021/08/06 09:00:38;;;;;;;19.13;10.88;;;29.90;55.20;;;;;;5051640;28;20053;-63
2021/08/06 09:03:04;;;;;;;18.92;10.65;;;30.30;54.40;;;;;;5052741;28;20032;-63
2021/08/06 09:05:31;;;;;;;16.52;9.50;;;30.60;53.10;;;;;;5052316;28;20136;-65
2021/08/06 09:07:58;;;;;;;14.43;8.95;;;31.00;51.90;;;;;;5052645;28;20025;-64
2021/08/06 09:10:33;;;;;;;14.02;8.60;;;31.10;51.40;;;;;;5052595;28;20060;-63
2021/08/06 09:13:01;;;;;;;11.50;7.30;;;31.30;50.50;;;;;;5052446;28;20056;-64
2021/08/06 09:15:52;;;;;;;12.48;7.72;;;31.40;50.70;;;;;;5052358;28;20017;-63
2021/08/06 09:18:26;;;;;;;13.57;7.53;;;31.50;48.70;;;;;;5052709;28;20033;-65
2021/08/06 09:21:16;;;;;;;10.50;5.85;;;31.30;49.40;;;;;;5052338;28;20476;-63
2021/08/06 09:23:46;;;;;;;8.88;5.00;;;31.10;49.50;;;;;;5051931;28;20111;-63
2021/08/06 09:26:30;;;;;;;12.68;5.57;;;30.90;50.40;;;;;;5052386;28;20025;-62
2021/08/06 09:29:19;;;;;;;8.10;4.68;;;30.90;47.90;;;;;;5052380;28;20017;-62
2021/08/06 09:31:51;;;;;;;9.85;4.97;;;30.80;48.70;;;;;;5051852;28;20059;-64
2021/08/06 09:34:21;;;;;;;;;;;30.70;48.40;;;;;;5052371;28;20021;-63
2021/08/06 09:37:18;;;;;;;12.93;7.63;;;30.60;47.60;;;;;;5051933;28;19908;-62
2021/08/06 09:39:55;;;;;;;11.50;6.25;;;30.50;47.00;;;;;;5051779;28;20024;-63
2021/08/06 09:42:35;;;;;;;11.73;6.30;;;30.40;46.70;;;;;;5051821;28;20025;-62
2021/08/06 09:45:15;;;;;;;10.35;5.38;;;30.50;47.40;;;;;;5051700;28;20025;-65
2021/08/06 09:47:44;;;;;;;9.52;3.97;;;30.70;47.90;;;;;;5051535;28;20029;-63
2021/08/06 09:50:16;;;;;;;9.07;4.00;;;30.90;48.40;;;;;;5051867;28;20041;-65
2021/08/06 09:52:51;;;;;;;10.65;3.85;;;31.30;48.30;;;;;;5052240;28;20048;-62
2021/08/06 09:55:31;;;;;;;6.25;3.10;;;31.50;48.40;;;;;;5051624;28;20075;-64
2021/08/06 09:57:58;;;;;;;6.53;3.08;;;31.80;47.90;;;;;;5051754;28;20049;-66
2021/08/06 10:00:25;;;;;;;8.20;2.70;;;31.80;47.70;;;;;;5052065;28;20036;-67
2021/08/06 10:02:52;;;;;;;5.03;2.60;;;31.80;48.00;;;;;;5051047;28;20075;-63
2021/08/06 10:05:20;;;;;;;5.25;2.72;;;31.80;47.70;;;;;;5050104;28;20480;-62
2021/08/06 10:07:49;;;;;;;5.35;2.47;;;31.80;47.50;;;;;;5051345;28;20025;-63
2021/08/06 10:10:16;;;;;;;6.20;2.70;;;31.80;47.70;;;;;;5050040;28;20105;-64
2021/08/06 10:12:42;;;;;;;4.43;2.50;;;31.70;47.60;;;;;;5051311;28;20021;-63
2021/08/06 10:15:09;;;;;;;5.22;2.58;;;31.70;47.40;;;;;;5051298;28;20048;-64
2021/08/06 10:17:35;;;;;;;4.55;2.40;;;31.50;47.00;;;;;;5051349;28;20480;-64
2021/08/06 10:20:01;;;;;;;5.18;2.40;;;31.40;47.30;;;;;;5051297;28;20035;-63
2021/08/06 10:22:27;;;;;;;5.88;2.50;;;31.50;46.90;;;;;;5051227;28;20537;-62
2021/08/06 10:24:54;;;;;;;5.25;2.40;;;31.60;46.30;;;;;;5051443;28;20150;-63
2021/08/06 10:27:26;;;;;;;4.38;2.40;;;31.70;45.90;;;;;;5051179;28;20361;-64
2021/08/06 10:30:01;;;;;;;6.78;2.72;;;32.00;46.40;;;;;;5051010;28;20465;-64
2021/08/06 10:32:28;;;;;;;4.75;2.45;;;32.80;45.10;;;;;;5050876;28;20060;-62
2021/08/06 10:35:12;;;;;;;4.32;2.08;;;33.70;45.60;;;;;;5051117;28;20083;-62
2021/08/06 10:37:58;;;;;;;7.40;3.10;;;34.60;43.70;;;;;;5050996;28;20029;-63
2021/08/06 10:40:33;;;;;;;4.50;2.22;;;35.50;43.60;;;;;;5051761;28;20508;-63
2021/08/06 10:43:33;;;;;;;4.78;2.00;;;36.00;44.20;;;;;;5050593;28;20037;-64
2021/08/06 10:45:58;;;;;;;5.25;2.00;;;36.60;43.50;;;;;;5034001;28;20408;-63
2021/08/06 10:48:36;;;;;;;5.53;2.38;;;37.10;44.50;;;;;;5051020;28;20025;-62
2021/08/06 10:51:17;;;;;;;4.68;2.60;;;37.90;44.30;;;;;;5051199;28;20029;-63
2021/08/06 10:53:55;;;;;;;7.63;2.80;;;38.70;43.80;;;;;;5051034;28;20032;-63
2021/08/06 10:56:28;;;;;;;4.63;2.50;;;39.60;44.00;;;;;;5050780;28;20021;-63
2021/08/06 10:59:02;;;;;;;3.90;2.30;;;40.30;43.90;;;;;;5050905;28;20036;-64
2021/08/06 11:01:31;;;;;;;4.75;2.45;;;40.90;43.30;;;;;;5049427;28;20052;-63
2021/08/06 11:03:58;;;;;;;5.88;3.25;;;41.60;42.70;;;;;;5050878;28;20074;-63
2021/08/06 11:06:46;;;;;;;6.70;3.40;;;42.10;41.80;;;;;;5050542;28;20495;-62
2021/08/06 11:09:24;;;;;;;5.68;3.15;;;42.50;40.50;;;;;;5050788;28;20025;-64
2021/08/06 11:12:03;;;;;;;4.72;2.80;;;42.80;40.50;;;;;;5050782;28;20031;-64
2021/08/06 11:14:29;;;;;;;6.00;2.50;;;43.20;40.70;;;;;;5050771;28;20033;-64
2021/08/06 11:17:03;;;;;;;5.78;2.70;;;43.50;40.50;;;;;;5052828;28;20376;-63
2021/08/06 11:19:30;;;;;;;5.22;2.65;;;43.60;38.50;;;;;;5054363;28;20419;-63
2021/08/06 11:21:57;;;;;;;5.57;3.20;;;43.20;39.60;;;;;;5054487;28;20100;-65
2021/08/06 11:24:23;;;;;;;4.72;3.10;;;42.40;39.50;;;;;;5054190;28;20026;-63
2021/08/06 11:26:50;;;;;;;5.13;3.10;;;41.40;39.80;;;;;;5054591;28;20021;-63
2021/08/06 11:29:17;;;;;;;4.65;2.92;;;40.50;40.30;;;;;;5054375;28;20021;-63
2021/08/06 11:31:42;;;;;;;4.80;3.03;;;39.60;40.90;;;;;;5054135;28;20092;-63
2021/08/06 11:34:08;;;;;;;7.00;3.70;;;38.80;41.50;;;;;;5054373;28;20025;-62
2021/08/06 11:36:35;;;;;;;5.70;3.20;;;38.20;42.20;;;;;;5054181;28;20040;-62
2021/08/06 11:39:11;;;;;;;6.97;3.80;;;37.50;42.80;;;;;;5053935;28;20029;-63
2021/08/06 11:41:47;;;;;;;6.60;4.10;;;36.80;43.30;;;;;;5053980;28;20018;-62
2021/08/06 11:44:12;;;;;;;6.97;4.57;;;36.10;43.90;;;;;;5054137;28;20067;-62
2021/08/06 11:46:54;;;;;;;6.68;4.47;;;35.40;44.50;;;;;;5053869;28;20480;-62
2021/08/06 11:49:21;;;;;;;7.97;5.15;;;34.80;45.60;;;;;;5054207;28;20029;-63
2021/08/06 11:51:48;;;;;;;6.25;4.80;;;34.10;46.70;;;;;;5053960;28;20481;-63
2021/08/06 11:54:14;;;;;;;7.82;5.20;;;33.60;47.50;;;;;;5054090;28;20064;-62
2021/08/06 11:56:40;;;;;;;10.23;5.40;;;33.20;48.40;;;;;;5053959;28;20040;-62
2021/08/06 11:59:09;;;;;;;6.47;4.30;;;32.70;49.00;;;;;;5053972;28;20021;-62
2021/08/06 12:01:35;;;;;;;6.53;4.95;;;32.40;49.80;;;;;;5054129;28;20028;-63
2021/08/06 12:04:01;;;;;;;7.00;4.18;;;32.10;50.20;;;;;;5053717;28;20548;-62
2021/08/06 12:06:27;;;;;;;6.10;4.35;;;31.90;51.00;;;;;;5053510;28;20120;-62
2021/08/06 12:08:54;;;;;;;6.45;5.05;;;31.70;51.80;;;;;;5053538;28;20060;-62
2021/08/06 12:11:22;;;;;;;7.70;6.40;;;31.50;52.70;;;;;;5053685;28;20419;-62
2021/08/06 12:13:52;;;;;;;10.98;7.68;;;31.20;53.90;;;;;;5053608;28;20025;-62
2021/08/06 12:16:21;;;;;;;9.50;7.70;;;30.70;55.60;;;;;;5053759;28;20381;-62
2021/08/06 12:18:52;;;;;;;9.75;6.40;;;30.10;56.20;;;;;;5053446;28;20440;-63
2021/08/06 12:21:18;;;;;;;9.00;5.13;;;29.40;57.80;;;;;;5053069;28;20431;-62
2021/08/06 12:23:56;;;;;;;10.60;6.22;;;28.60;59.00;;;;;;5053240;28;20079;-62
2021/08/06 12:26:35;;;;;;;8.25;5.70;;;27.70;63.00;;;;;;5053391;28;20472;-62
2021/08/06 12:29:09;;;;;;;9.77;6.13;;;26.90;65.40;;;;;;5052544;28;20053;-62
2021/08/06 12:31:55;;;;;;;10.57;7.00;;;26.20;68.20;;;;;;5052801;28;20100;-63
2021/08/06 12:34:27;;;;;;;9.32;7.10;;;25.50;70.40;;;;;;5053466;28;20025;-63
2021/08/06 12:37:08;;;;;;;11.90;7.78;;;24.90;72.70;;;;;;5053162;28;20404;-63
2021/08/06 12:39:50;;;;;;;12.27;9.00;;;24.30;77.70;;;;;;5053082;28;20464;-67